createdAt,value
2018-11-13T00:00:29.659Z,101408.67
2018-11-13T00:02:58.993Z,101417.05
2018-11-13T00:05:28.717Z,101423.69
2018-11-13T00:07:58.031Z,101414.76
2018-11-13T00:10:27.009Z,101422.29
2018-11-13T00:12:56.451Z,101415.36
2018-11-13T00:15:25.868Z,101422.48
2018-11-13T00:17:54.426Z,101424.83
2018-11-13T00:20:22.947Z,101429.80
2018-11-13T00:22:51.499Z,101437.88
2018-11-13T00:25:20.898Z,101444.61
2018-11-13T00:27:49.449Z,101446.08
2018-11-13T00:30:22.152Z,101451.73
2018-11-13T00:32:51.919Z,101449.64
2018-11-13T00:35:21.027Z,101452.27
2018-11-13T00:37:50.287Z,101442.93
2018-11-13T00:40:19.349Z,101442.64
2018-11-13T00:42:48.388Z,101450.12
2018-11-13T00:45:16.989Z,101457.63
2018-11-13T00:47:46.137Z,101450.39
2018-11-13T00:50:17.107Z,101445.36
2018-11-13T00:52:47.178Z,101446.65
2018-11-13T00:55:16.950Z,101445.81
2018-11-13T00:57:46.761Z,101447.09
2018-11-13T01:00:17.766Z,101458.10
2018-11-13T01:02:48.435Z,101447.42
2018-11-13T01:05:19.355Z,101444.20
2018-11-13T01:07:50.034Z,101433.42
2018-11-13T01:10:20.319Z,101444.70
2018-11-13T01:12:50.087Z,101447.39
2018-11-13T01:15:19.926Z,101438.79
2018-11-13T01:17:50.102Z,101446.68
2018-11-13T01:20:20.007Z,101449.27
2018-11-13T01:22:49.611Z,101459.24
2018-11-13T01:25:19.109Z,101455.85
2018-11-13T01:27:47.788Z,101461.14
2018-11-13T01:30:18.409Z,101463.23
2018-11-13T01:32:48.054Z,101474.56
2018-11-13T01:35:18.584Z,101468.67
2018-11-13T01:37:48.010Z,101470.87
2018-11-13T01:40:19.234Z,101469.62
2018-11-13T01:42:47.802Z,101466.63
2018-11-13T01:45:18.552Z,101475.61
2018-11-13T01:47:47.120Z,101478.70
2018-11-13T01:50:17.625Z,101479.61
2018-11-13T01:52:47.501Z,101476.66
2018-11-13T01:55:17.164Z,101477.20
2018-11-13T01:57:46.838Z,101495.16
2018-11-13T02:00:21.678Z,101490.92
2018-11-13T02:02:52.426Z,101487.52
2018-11-13T02:05:23.261Z,101486.67
2018-11-13T02:07:53.590Z,101495.26
2018-11-13T02:10:23.460Z,101495.52
2018-11-13T02:12:52.571Z,101496.87
2018-11-13T02:15:21.909Z,101495.42
2018-11-13T02:17:51.415Z,101485.24
2018-11-13T02:20:22.185Z,101487.52
2018-11-13T02:22:51.650Z,101486.77
2018-11-13T02:25:21.068Z,101491.91
2018-11-13T02:27:50.753Z,101497.23
2018-11-13T02:30:22.500Z,101496.39
2018-11-13T02:32:51.589Z,101502.95
2018-11-13T02:35:21.230Z,101505.64
2018-11-13T02:37:50.771Z,101510.42
2018-11-13T02:40:20.254Z,101514.40
2018-11-13T02:42:49.703Z,101504.52
2018-11-13T02:45:20.022Z,101502.41
2018-11-13T02:47:48.601Z,101490.39
2018-11-13T02:50:19.324Z,101492.17
2018-11-13T02:52:47.934Z,101502.98
2018-11-13T02:55:16.592Z,101516.67
2018-11-13T02:57:46.338Z,101519.31
2018-11-13T03:00:21.227Z,101516.28
2018-11-13T03:02:50.123Z,101507.52
2018-11-13T03:05:19.838Z,101500.50
2018-11-13T03:07:48.455Z,101510.34
2018-11-13T03:10:18.194Z,101503.59
2018-11-13T03:12:46.945Z,101489.27
2018-11-13T03:15:18.845Z,101476.04
2018-11-13T03:17:47.452Z,101479.08
2018-11-13T03:20:18.040Z,101499.16
2018-11-13T03:22:47.129Z,101497.86
2018-11-13T03:25:18.705Z,101510.20
2018-11-13T03:27:48.138Z,101514.27
2018-11-13T03:30:19.779Z,101513.43
2018-11-13T03:32:49.618Z,101513.83
2018-11-13T03:35:19.185Z,101509.80
2018-11-13T03:37:48.684Z,101508.00
2018-11-13T03:40:18.539Z,101495.08
2018-11-13T03:42:48.083Z,101495.08
2018-11-13T03:45:18.050Z,101501.97
2018-11-13T03:47:47.613Z,101490.87
2018-11-13T03:50:19.293Z,101491.46
2018-11-13T03:52:48.788Z,101492.58
2018-11-13T03:55:19.038Z,101499.77
2018-11-13T03:57:48.349Z,101510.63
2018-11-13T04:00:19.820Z,101501.27
2018-11-13T04:02:49.292Z,101498.43
2018-11-13T04:05:18.782Z,101504.31
2018-11-13T04:07:49.454Z,101507.66
2018-11-13T04:10:19.821Z,101514.55
2018-11-13T04:12:49.538Z,101499.97
2018-11-13T04:15:21.344Z,101487.84
2018-11-13T04:17:49.947Z,101480.50
2018-11-13T04:20:20.595Z,101491.68
2018-11-13T04:22:49.537Z,101494.68
2018-11-13T04:25:19.007Z,101493.14
2018-11-13T04:27:47.547Z,101500.08
2018-11-13T04:30:17.822Z,101498.62
2018-11-13T04:32:47.151Z,101483.34
2018-11-13T04:35:17.802Z,101479.94
2018-11-13T04:37:47.538Z,101477.69
2018-11-13T04:40:18.292Z,101485.33
2018-11-13T04:42:48.286Z,101486.92
2018-11-13T04:45:19.029Z,101487.56
2018-11-13T04:47:48.357Z,101482.67
2018-11-13T04:50:18.958Z,101488.77
2018-11-13T04:52:47.529Z,101482.38
2018-11-13T04:55:16.911Z,101494.77
2018-11-13T04:57:47.468Z,101499.13
2018-11-13T05:00:17.930Z,101494.95
2018-11-13T05:02:46.973Z,101500.44
2018-11-13T05:05:17.442Z,101504.62
2018-11-13T05:07:47.984Z,101508.56
2018-11-13T05:10:17.638Z,101506.98
2018-11-13T05:12:47.266Z,101497.04
2018-11-13T05:15:16.560Z,101502.02
2018-11-13T05:17:46.269Z,101501.96
2018-11-13T05:20:16.396Z,101499.30
2018-11-13T05:22:46.370Z,101501.50
2018-11-13T05:25:17.050Z,101519.12
2018-11-13T05:27:46.704Z,101511.45
2018-11-13T05:30:17.173Z,101510.60
2018-11-13T05:32:46.739Z,101505.80
2018-11-13T05:35:17.055Z,101492.75
2018-11-13T05:37:46.802Z,101493.95
2018-11-13T05:40:18.966Z,101495.13
2018-11-13T05:42:47.577Z,101500.77
2018-11-13T05:45:17.692Z,101500.16
2018-11-13T05:47:46.940Z,101496.44
2018-11-13T05:50:16.637Z,101491.23
2018-11-13T05:52:47.124Z,101499.25
2018-11-13T05:55:16.969Z,101502.04
2018-11-13T05:57:45.807Z,101501.80
2018-11-13T06:00:17.389Z,101508.50
2018-11-13T06:02:47.346Z,101506.65
2018-11-13T06:05:16.956Z,101513.39
2018-11-13T06:07:46.537Z,101523.47
2018-11-13T06:10:15.615Z,101528.22
2018-11-13T06:12:44.545Z,101507.67
2018-11-13T06:15:14.842Z,101513.43
2018-11-13T06:17:44.321Z,101515.13
2018-11-13T06:20:15.151Z,101516.38
2018-11-13T06:22:45.470Z,101523.84
2018-11-13T06:25:16.786Z,101530.00
2018-11-13T06:27:47.367Z,101535.64
2018-11-13T06:30:19.316Z,101540.38
2018-11-13T06:32:48.460Z,101540.50
2018-11-13T06:35:16.976Z,101543.04
2018-11-13T06:37:47.053Z,101543.70
2018-11-13T06:40:16.556Z,101547.96
2018-11-13T06:42:46.759Z,101555.30
2018-11-13T06:45:18.802Z,101568.46
2018-11-13T06:47:48.023Z,101565.31
2018-11-13T06:50:17.514Z,101564.77
2018-11-13T06:52:47.908Z,101566.52
2018-11-13T06:55:21.063Z,101563.56
2018-11-13T06:57:49.699Z,101580.02
2018-11-13T07:00:18.335Z,101581.31
2018-11-13T07:02:47.799Z,101581.98
2018-11-13T07:05:18.024Z,101587.88
2018-11-13T07:07:46.905Z,101592.28
2018-11-13T07:10:18.921Z,101594.03
2018-11-13T07:12:49.464Z,101590.37
2018-11-13T07:15:21.117Z,101587.75
2018-11-13T07:17:52.887Z,101579.06
2018-11-13T07:20:23.589Z,101583.13
2018-11-13T07:22:52.176Z,101587.08
2018-11-13T07:25:22.104Z,101589.96
2018-11-13T07:30:21.129Z,101597.72
2018-11-13T07:32:50.582Z,101601.89
2018-11-13T07:35:20.911Z,101598.90
2018-11-13T07:37:55.026Z,101611.48
2018-11-13T07:40:23.636Z,101628.80
2018-11-13T07:42:52.435Z,101644.70
2018-11-13T07:45:21.832Z,101658.73
2018-11-13T07:47:51.789Z,101642.73
2018-11-13T07:50:21.236Z,101625.53
2018-11-13T07:52:50.758Z,101625.24
2018-11-13T07:55:20.383Z,101615.81
2018-11-13T07:57:50.005Z,101618.93
2018-11-13T08:00:21.396Z,101617.50
2018-11-13T08:02:52.170Z,101624.52
2018-11-13T08:05:21.983Z,101606.64
2018-11-13T08:07:51.464Z,101606.59
2018-11-13T08:10:20.933Z,101603.37
2018-11-13T08:12:50.478Z,101610.89
2018-11-13T08:15:20.480Z,101611.91
2018-11-13T08:17:49.875Z,101626.39
2018-11-13T08:20:18.447Z,101632.76
2018-11-13T08:22:47.081Z,101638.64
2018-11-13T08:25:16.418Z,101638.13
2018-11-13T08:27:45.785Z,101639.47
2018-11-13T08:30:16.666Z,101643.80
2018-11-13T08:32:46.916Z,101640.05
2018-11-13T08:35:16.877Z,101649.55
2018-11-13T08:37:45.883Z,101644.23
2018-11-13T08:40:15.737Z,101646.48
2018-11-13T08:42:45.014Z,101643.03
2018-11-13T08:45:15.800Z,101634.72
2018-11-13T08:47:45.255Z,101643.56
2018-11-13T08:50:15.544Z,101642.59
2018-11-13T08:52:45.056Z,101649.16
2018-11-13T08:55:15.357Z,101647.27
2018-11-13T08:57:46.356Z,101643.04
2018-11-13T09:00:16.529Z,101653.59
2018-11-13T09:02:46.317Z,101644.80
2018-11-13T09:05:16.862Z,101637.81
2018-11-13T09:07:47.520Z,101631.75
2018-11-13T09:10:18.180Z,101642.39
2018-11-13T09:12:47.994Z,101647.53
2018-11-13T09:15:18.983Z,101647.20
2018-11-13T09:17:48.990Z,101651.53
2018-11-13T09:20:19.685Z,101665.92
2018-11-13T09:22:48.404Z,101657.24
2018-11-13T09:25:20.099Z,101647.75
2018-11-13T09:27:48.659Z,101660.95
2018-11-13T09:30:19.420Z,101667.20
2018-11-13T09:32:50.053Z,101669.23
2018-11-13T09:35:19.341Z,101674.58
2018-11-13T09:37:47.815Z,101677.95
2018-11-13T09:40:18.147Z,101681.86
2018-11-13T09:42:47.845Z,101682.02
2018-11-13T09:45:17.691Z,101680.90
2018-11-13T09:47:48.122Z,101689.09
2018-11-13T09:50:17.998Z,101694.19
2018-11-13T09:52:47.851Z,101704.55
2018-11-13T09:55:17.908Z,101702.00
2018-11-13T09:57:46.495Z,101698.63
2018-11-13T10:00:20.183Z,101701.73
2018-11-13T10:02:51.618Z,101698.67
2018-11-13T10:05:20.742Z,101699.39
2018-11-13T10:07:49.493Z,101699.50
2018-11-13T10:10:18.063Z,101702.96
2018-11-13T10:12:46.918Z,101710.98
2018-11-13T10:15:18.291Z,101699.45
2018-11-13T10:17:46.967Z,101710.53
2018-11-13T10:20:16.467Z,101718.79
2018-11-13T10:22:47.771Z,101716.94
2018-11-13T10:25:17.077Z,101720.44
2018-11-13T10:27:46.098Z,101716.20
2018-11-13T10:30:16.993Z,101716.94
2018-11-13T10:32:47.875Z,101712.22
2018-11-13T10:35:19.388Z,101713.20
2018-11-13T10:37:47.999Z,101705.20
2018-11-13T10:40:17.875Z,101712.58
2018-11-13T10:42:47.021Z,101714.90
2018-11-13T10:45:18.286Z,101721.77
2018-11-13T10:47:47.744Z,101709.98
2018-11-13T10:50:18.896Z,101719.13
2018-11-13T10:52:47.414Z,101721.81
2018-11-13T10:55:16.816Z,101727.35
2018-11-13T10:57:46.004Z,101732.98
2018-11-13T11:00:21.704Z,101722.96
2018-11-13T11:02:55.786Z,101721.73
2018-11-13T11:05:26.491Z,101724.87
2018-11-13T11:07:55.427Z,101725.45
2018-11-13T11:10:24.076Z,101729.70
2018-11-13T11:12:52.705Z,101725.83
2018-11-13T11:15:21.310Z,101730.06
2018-11-13T11:17:49.963Z,101729.47
2018-11-13T11:20:18.534Z,101730.40
2018-11-13T11:22:47.173Z,101728.79
2018-11-13T11:25:16.251Z,101725.45
2018-11-13T11:27:45.877Z,101729.69
2018-11-13T11:30:15.704Z,101743.55
2018-11-13T11:32:44.783Z,101752.33
2018-11-13T11:35:13.490Z,101748.19
2018-11-13T11:37:42.277Z,101762.06
2018-11-13T11:40:11.690Z,101759.63
2018-11-13T11:42:40.304Z,101749.59
2018-11-13T11:45:10.738Z,101750.89
2018-11-13T11:47:40.146Z,101743.20
2018-11-13T11:50:10.837Z,101746.47
2018-11-13T11:52:39.473Z,101751.66
2018-11-13T11:55:08.932Z,101748.62
2018-11-13T11:57:38.378Z,101751.09
2018-11-13T12:00:11.827Z,101755.43
2018-11-13T12:02:41.269Z,101765.84
2018-11-13T12:05:11.179Z,101758.46
2018-11-13T12:07:39.955Z,101747.88
2018-11-13T12:10:11.784Z,101754.80
2018-11-13T12:12:41.392Z,101758.28
2018-11-13T12:15:11.344Z,101766.55
2018-11-13T12:17:41.070Z,101760.10
2018-11-13T12:20:12.159Z,101762.37
2018-11-13T12:22:41.818Z,101748.66
2018-11-13T12:25:13.280Z,101741.90
2018-11-13T12:27:43.169Z,101735.89
2018-11-13T12:30:15.978Z,101745.13
2018-11-13T12:32:46.609Z,101737.92
2018-11-13T12:35:17.589Z,101743.20
2018-11-13T12:37:47.145Z,101729.86
2018-11-13T12:40:17.996Z,101737.72
2018-11-13T12:42:48.380Z,101745.86
2018-11-13T12:45:18.349Z,101748.91
2018-11-13T12:47:47.758Z,101743.70
2018-11-13T12:50:18.700Z,101746.29
2018-11-13T12:52:47.357Z,101751.95
2018-11-13T12:55:22.691Z,101751.13
2018-11-13T12:57:52.166Z,101758.44
2018-11-13T13:00:23.851Z,101746.82
2018-11-13T13:02:53.528Z,101756.78
2018-11-13T13:05:23.054Z,101759.20
2018-11-13T13:07:52.435Z,101770.72
2018-11-13T13:10:21.833Z,101763.62
2018-11-13T13:12:51.247Z,101767.40
2018-11-13T13:15:20.989Z,101765.47
2018-11-13T13:17:49.634Z,101767.51
2018-11-13T13:20:24.811Z,101765.09
2018-11-13T13:22:54.233Z,101772.34
2018-11-13T13:25:24.480Z,101767.92
2018-11-13T13:27:53.980Z,101779.34
2018-11-13T13:30:24.831Z,101777.38
2018-11-13T13:32:54.316Z,101776.52
2018-11-13T13:35:40.185Z,101773.51
2018-11-13T13:38:10.530Z,101777.70
2018-11-13T13:40:40.006Z,101779.98
2018-11-13T13:43:10.461Z,101782.84
2018-11-13T13:45:40.081Z,101788.78
2018-11-13T13:48:09.467Z,101784.05
2018-11-13T13:50:38.501Z,101787.67
2018-11-13T13:53:07.781Z,101790.88
2018-11-13T13:55:36.359Z,101789.73
2018-11-13T13:58:05.448Z,101797.09
2018-11-13T14:00:34.079Z,101801.05
2018-11-13T14:03:02.736Z,101804.07
2018-11-13T14:05:31.305Z,101815.59
2018-11-13T14:07:59.870Z,101820.86
2018-11-13T14:10:28.474Z,101821.16
2018-11-13T14:12:57.142Z,101822.31
2018-11-13T14:15:25.773Z,101823.88
2018-11-13T14:17:54.376Z,101820.89
2018-11-13T14:20:22.986Z,101816.69
2018-11-13T14:22:51.548Z,101818.05
2018-11-13T14:25:20.117Z,101820.37
2018-11-13T14:27:48.840Z,101823.92
2018-11-13T14:30:22.860Z,101826.91
2018-11-13T14:32:52.030Z,101828.05
2018-11-13T14:35:20.671Z,101828.48
2018-11-13T14:37:49.325Z,101832.08
2018-11-13T14:40:20.631Z,101829.63
2018-11-13T14:42:49.508Z,101824.92
2018-11-13T14:45:18.742Z,101828.97
2018-11-13T14:47:48.013Z,101834.13
2018-11-13T14:50:19.107Z,101830.91
2018-11-13T14:52:48.180Z,101832.03
2018-11-13T14:55:19.196Z,101835.95
2018-11-13T14:57:48.123Z,101834.11
2018-11-13T15:00:21.965Z,101841.48
2018-11-13T15:02:51.091Z,101838.69
2018-11-13T15:05:20.845Z,101845.29
2018-11-13T15:07:50.804Z,101844.89
2018-11-13T15:10:25.093Z,101848.09
2018-11-13T15:12:54.541Z,101846.11
2018-11-13T15:15:23.252Z,101855.62
2018-11-13T15:17:51.819Z,101854.56
2018-11-13T15:20:20.381Z,101853.10
2018-11-13T15:22:48.931Z,101862.96
2018-11-13T15:25:17.477Z,101860.98
2018-11-13T15:27:47.093Z,101863.25
2018-11-13T15:30:18.837Z,101861.05
2018-11-13T15:32:51.560Z,101862.40
2018-11-13T15:35:21.153Z,101874.48
2018-11-13T15:37:49.727Z,101869.70
2018-11-13T15:40:21.774Z,101873.61
2018-11-13T15:42:50.365Z,101873.91
2018-11-13T15:45:19.506Z,101876.45
2018-11-13T15:47:50.091Z,101873.38
2018-11-13T15:50:23.713Z,101881.66
2018-11-13T15:52:53.318Z,101886.54
2018-11-13T15:55:22.813Z,101882.84
2018-11-13T15:57:52.415Z,101898.72
2018-11-13T16:00:27.383Z,101914.08
2018-11-13T16:02:57.822Z,101941.72
2018-11-13T16:05:32.558Z,101935.89
2018-11-13T16:08:03.118Z,101955.94
2018-11-13T16:10:32.622Z,101967.55
2018-11-13T16:13:02.466Z,101953.93
2018-11-13T16:15:31.535Z,101943.91
2018-11-13T16:18:02.713Z,101951.55
2018-11-13T16:20:32.049Z,101937.30
2018-11-13T16:23:01.640Z,101936.39
2018-11-13T16:25:30.225Z,101932.42
2018-11-13T16:27:58.824Z,101919.42
2018-11-13T16:30:30.333Z,101915.20
2018-11-13T16:32:59.794Z,101923.58
2018-11-13T16:35:30.334Z,101927.47
2018-11-13T16:38:01.047Z,101931.62
2018-11-13T16:40:31.542Z,101925.93
2018-11-13T16:43:01.259Z,101926.41
2018-11-13T16:45:31.657Z,101946.32
2018-11-13T16:48:02.429Z,101940.30
2018-11-13T16:50:32.277Z,101928.24
2018-11-13T16:53:01.916Z,101936.86
2018-11-13T16:55:36.712Z,101935.03
2018-11-13T16:58:07.390Z,101929.50
2018-11-13T17:00:36.415Z,101931.49
2018-11-13T17:03:04.967Z,101922.84
2018-11-13T17:05:34.065Z,101926.80
2018-11-13T17:08:02.552Z,101933.62
2018-11-13T17:10:32.629Z,101933.53
2018-11-13T17:13:01.932Z,101947.62
2018-11-13T17:15:32.294Z,101964.93
2018-11-13T17:18:01.884Z,101996.52
2018-11-13T17:20:31.630Z,102000.45
2018-11-13T17:23:00.263Z,102016.70
2018-11-13T17:25:31.311Z,102018.98
2018-11-13T17:27:59.942Z,102026.03
2018-11-13T17:30:31.966Z,102029.89
2018-11-13T17:33:03.174Z,102002.38
2018-11-13T17:35:32.399Z,102016.69
2018-11-13T17:38:03.203Z,102004.84
2018-11-13T17:40:33.988Z,102007.97
2018-11-13T17:43:04.821Z,101983.92
2018-11-13T17:45:37.612Z,101968.36
2018-11-13T17:48:07.468Z,101969.03
2018-11-13T17:50:37.233Z,101984.65
2018-11-13T17:53:06.866Z,101996.95
2018-11-13T17:55:35.428Z,102001.46
2018-11-13T17:58:06.859Z,102002.41
2018-11-13T18:00:37.979Z,102004.53
2018-11-13T18:03:07.662Z,101997.38
2018-11-13T18:05:37.544Z,102006.64
2018-11-13T18:08:07.655Z,102007.58
2018-11-13T18:10:37.318Z,102011.50
2018-11-13T18:13:06.622Z,102027.16
2018-11-13T18:15:35.206Z,102026.73
2018-11-13T18:18:04.264Z,102034.63
2018-11-13T18:20:34.121Z,102036.08
2018-11-13T18:23:02.682Z,102048.51
2018-11-13T18:25:31.394Z,102058.86
2018-11-13T18:28:00.999Z,102058.91
2018-11-13T18:30:33.902Z,102064.14
2018-11-13T18:33:03.269Z,102064.59
2018-11-13T18:35:33.033Z,102068.05
2018-11-13T18:38:03.079Z,102074.50
2018-11-13T18:40:31.655Z,102075.05
2018-11-13T18:43:01.566Z,102080.33
2018-11-13T18:45:31.937Z,102079.92
2018-11-13T18:48:00.662Z,102078.67
2018-11-13T18:50:30.459Z,102093.01
2018-11-13T18:52:59.918Z,102093.52
2018-11-13T18:55:28.517Z,102089.69
2018-11-13T18:57:57.235Z,102090.54
2018-11-13T19:00:27.285Z,102093.12
2018-11-13T19:02:55.828Z,102093.20
2018-11-13T19:05:25.325Z,102100.10
2018-11-13T19:07:54.079Z,102102.72
2018-11-13T19:10:28.923Z,102113.56
2018-11-13T19:12:58.390Z,102114.05
2018-11-13T19:15:27.752Z,102110.16
2018-11-13T19:17:56.417Z,102108.91
2018-11-13T19:20:26.222Z,102116.67
2018-11-13T19:22:54.954Z,102122.30
2018-11-13T19:25:26.089Z,102127.48
2018-11-13T19:27:57.912Z,102131.33
2018-11-13T19:30:26.575Z,102136.95
2018-11-13T19:32:59.803Z,102140.00
2018-11-13T19:35:36.735Z,102140.46
2018-11-13T19:38:08.584Z,102138.79
2018-11-13T19:40:41.948Z,102140.92
2018-11-13T19:43:12.929Z,102138.80
2018-11-13T19:45:41.447Z,102137.02
2018-11-13T19:48:10.062Z,102134.91
2018-11-13T19:50:39.942Z,102135.36
2018-11-13T19:53:08.216Z,102140.53
2018-11-13T19:55:37.870Z,102141.80
2018-11-13T19:58:06.566Z,102140.11
2018-11-13T20:00:37.310Z,102148.30
2018-11-13T20:03:08.646Z,102149.14
2018-11-13T20:05:37.345Z,102145.70
2018-11-13T20:08:07.599Z,102155.63
2018-11-13T20:10:37.402Z,102155.20
2018-11-13T20:13:06.989Z,102153.48
2018-11-13T20:15:36.301Z,102160.41
2018-11-13T20:18:06.977Z,102155.64
2018-11-13T20:20:37.491Z,102156.09
2018-11-13T20:23:12.719Z,102164.73
2018-11-13T20:25:43.710Z,102161.25
2018-11-13T20:28:17.767Z,102164.75
2018-11-13T20:30:50.593Z,102164.31
2018-11-13T20:33:27.587Z,102171.23
2018-11-13T20:36:02.685Z,102170.77
2018-11-13T20:38:38.781Z,102168.19
2018-11-13T20:41:19.545Z,102168.61
2018-11-13T20:43:51.088Z,102173.39
2018-11-13T20:46:19.800Z,102178.13
2018-11-13T20:48:48.495Z,102175.98
2018-11-13T20:51:17.108Z,102180.32
2018-11-13T20:53:46.612Z,102183.77
2018-11-13T20:56:16.154Z,102181.59
2018-11-13T20:58:45.471Z,102183.71
2018-11-13T21:01:14.847Z,102177.70
2018-11-13T21:03:44.479Z,102175.91
2018-11-13T21:06:13.440Z,102176.34
2018-11-13T21:08:42.158Z,102174.18
2018-11-13T21:11:10.758Z,102176.75
2018-11-13T21:13:39.425Z,102180.20
2018-11-13T21:16:09.015Z,102183.30
2018-11-13T21:18:37.713Z,102189.30
2018-11-13T21:21:07.306Z,102191.50
2018-11-13T21:23:36.025Z,102186.31
2018-11-13T21:26:04.618Z,102195.39
2018-11-13T21:28:33.238Z,102192.39
2018-11-13T21:31:02.740Z,102198.00
2018-11-13T21:33:31.450Z,102199.33
2018-11-13T21:36:00.063Z,102207.52
2018-11-13T21:38:28.723Z,102209.23
2018-11-13T21:40:57.383Z,102216.14
2018-11-13T21:43:26.043Z,102214.41
2018-11-13T21:45:54.698Z,102217.88
2018-11-13T21:48:23.344Z,102219.19
2018-11-13T21:50:52.872Z,102221.77
2018-11-13T21:53:21.731Z,102226.53
2018-11-13T21:55:51.212Z,102223.08
2018-11-13T21:58:20.765Z,102223.05
2018-11-13T22:00:49.485Z,102219.59
2018-11-13T22:03:19.085Z,102224.78
2018-11-13T22:05:48.120Z,102225.20
2018-11-13T22:08:16.729Z,102229.09
2018-11-13T22:10:46.394Z,102229.09
2018-11-13T22:13:16.912Z,102230.83
2018-11-13T22:15:46.258Z,102233.84
2018-11-13T22:18:16.668Z,102239.02
2018-11-13T22:20:46.118Z,102248.52
2018-11-13T22:23:16.604Z,102244.64
2018-11-13T22:25:46.869Z,102245.48
2018-11-13T22:28:16.711Z,102247.22
2018-11-13T22:30:46.913Z,102240.73
2018-11-13T22:33:15.989Z,102244.17
2018-11-13T22:35:45.638Z,102248.95
2018-11-13T22:38:16.028Z,102243.31
2018-11-13T22:40:45.435Z,102244.16
2018-11-13T22:43:15.065Z,102248.50
2018-11-13T22:45:45.457Z,102246.78
2018-11-13T22:48:15.199Z,102242.00
2018-11-13T22:50:45.286Z,102246.77
2018-11-13T22:53:14.942Z,102248.47
2018-11-13T22:55:44.345Z,102250.22
2018-11-13T22:58:12.894Z,102251.92
2018-11-13T23:00:46.337Z,102246.36
2018-11-13T23:03:15.937Z,102245.48
2018-11-13T23:05:45.526Z,102251.94
2018-11-13T23:08:17.568Z,102248.03
2018-11-13T23:10:47.019Z,102254.97
2018-11-13T23:13:16.592Z,102251.52
2018-11-13T23:15:46.053Z,102254.13
2018-11-13T23:18:15.366Z,102256.70
2018-11-13T23:20:45.254Z,102256.27
2018-11-13T23:23:15.489Z,102257.98
2018-11-13T23:25:45.304Z,102263.17
2018-11-13T23:28:14.031Z,102263.61
2018-11-13T23:30:42.631Z,102260.16
2018-11-13T23:33:11.204Z,102267.50
2018-11-13T23:35:40.316Z,102266.61
2018-11-13T23:38:08.936Z,102271.80
2018-11-13T23:40:37.546Z,102274.81
2018-11-13T23:43:07.030Z,102285.18
2018-11-13T23:45:37.278Z,102279.55
2018-11-13T23:48:08.228Z,102282.11
2018-11-13T23:50:45.448Z,102286.88
2018-11-13T23:53:17.088Z,102280.41
2018-11-13T23:55:48.159Z,102286.44
2018-11-13T23:58:19.952Z,102285.94
